Terminal Aerodrome Forecast
Issued by NWS

Home | Current Version | Previous Version | Text Only | Print | Product List | Glossary Off
Versions: 1 2 3 4 5 6 7 8 9 10 11 12

000
FTUS42 KMHX 200500
TAFOAJ
TAF
KOAJ 200527Z 2006/2106 00000KT P6SM SCT200
     FM201500 24011G19KT P6SM SKC
     FM202200 23003KT P6SM SKC
      AMD LTD TO CLD VIS AND WIND=

USA.gov is the U.S. government's official web portal to all federal, state and local government web resources and services.